createdAt,value
2022-10-18T00:00:18.921Z,73.95
2022-10-18T00:02:46.136Z,73.88
2022-10-18T00:05:13.176Z,73.74
2022-10-18T00:07:40.236Z,73.89
2022-10-18T00:10:07.782Z,73.63
2022-10-18T00:12:36.976Z,73.46
2022-10-18T00:15:06.448Z,73.50
2022-10-18T00:17:38.242Z,73.55
2022-10-18T00:20:06.606Z,73.02
2022-10-18T00:22:38.729Z,73.50
2022-10-18T00:25:07.163Z,73.20
2022-10-18T00:27:34.867Z,72.86
2022-10-18T00:30:02.217Z,72.90
2022-10-18T00:32:31.580Z,72.59
2022-10-18T00:34:59.363Z,72.67
2022-10-18T00:37:26.320Z,72.51
2022-10-18T00:42:31.063Z,71.86
2022-10-18T00:45:14.951Z,71.97
2022-10-18T00:47:44.118Z,72.19
2022-10-18T00:50:11.809Z,71.96
2022-10-18T00:52:47.160Z,72.17
2022-10-18T00:55:14.251Z,72.17
2022-10-18T00:57:43.622Z,72.07
2022-10-18T01:00:12.197Z,71.83
2022-10-18T01:02:41.909Z,71.71
2022-10-18T01:05:11.677Z,71.90
2022-10-18T01:07:55.584Z,72.47
2022-10-18T01:10:55.207Z,72.35
2022-10-18T01:13:52.812Z,72.17
2022-10-18T01:16:40.803Z,72.75
2022-10-18T01:19:52.731Z,72.26
2022-10-18T01:22:42.817Z,72.55
2022-10-18T01:25:21.965Z,72.84
2022-10-18T01:28:16.343Z,72.54
2022-10-18T01:31:06.288Z,72.57
2022-10-18T01:33:51.245Z,72.57
2022-10-18T01:36:35.335Z,72.53
2022-10-18T01:39:07.844Z,72.43
2022-10-18T01:41:37.424Z,72.39
2022-10-18T01:44:08.625Z,72.50
2022-10-18T01:46:37.742Z,72.56
2022-10-18T01:49:05.293Z,72.12
2022-10-18T01:51:33.592Z,72.53
2022-10-18T01:54:00.726Z,71.96
2022-10-18T01:56:53.490Z,72.13
2022-10-18T01:59:51.653Z,72.30
2022-10-18T02:02:32.383Z,72.49
2022-10-18T02:05:11.710Z,72.12
2022-10-18T02:08:00.165Z,72.16
2022-10-18T02:10:49.040Z,71.85
2022-10-18T02:13:19.531Z,72.01
2022-10-18T02:16:57.172Z,71.81
2022-10-18T02:19:46.459Z,71.91
2022-10-18T02:22:15.352Z,72.26
2022-10-18T02:24:46.691Z,72.00
2022-10-18T02:27:14.144Z,71.88
2022-10-18T02:29:42.408Z,71.90
2022-10-18T02:32:26.034Z,71.92
2022-10-18T02:35:00.976Z,71.67
2022-10-18T02:37:35.501Z,71.79
2022-10-18T02:40:05.057Z,71.59
2022-10-18T02:42:40.729Z,71.64
2022-10-18T02:45:08.130Z,71.91
2022-10-18T02:47:35.240Z,72.00
2022-10-18T02:50:02.354Z,72.07
2022-10-18T02:52:30.877Z,71.92
2022-10-18T02:54:57.889Z,71.94
2022-10-18T02:57:24.914Z,71.87
2022-10-18T02:59:51.896Z,71.61
2022-10-18T03:02:19.011Z,71.88
2022-10-18T03:04:46.054Z,71.82
2022-10-18T03:07:13.034Z,71.73
2022-10-18T03:09:40.131Z,71.99
2022-10-18T03:12:07.375Z,71.87
2022-10-18T03:14:34.427Z,71.70
2022-10-18T03:17:01.395Z,71.97
2022-10-18T03:19:28.434Z,71.84
2022-10-18T03:21:55.565Z,71.79
2022-10-18T03:24:22.734Z,72.08
2022-10-18T03:26:49.825Z,71.82
2022-10-18T03:29:16.871Z,71.81
2022-10-18T03:31:43.964Z,71.56
2022-10-18T03:34:11.071Z,72.24
2022-10-18T03:36:38.953Z,72.59
2022-10-18T03:39:05.955Z,72.33
2022-10-18T03:41:32.959Z,72.18
2022-10-18T03:43:59.954Z,72.74
2022-10-18T03:46:27.146Z,72.71
2022-10-18T03:48:54.179Z,72.88
2022-10-18T03:51:21.313Z,72.71
2022-10-18T03:53:48.319Z,72.55
2022-10-18T03:56:15.491Z,72.56
2022-10-18T03:58:42.650Z,72.65
2022-10-18T04:01:09.709Z,72.80
2022-10-18T04:03:36.895Z,72.74
2022-10-18T04:06:04.164Z,73.26
2022-10-18T04:08:32.181Z,73.25
2022-10-18T04:10:59.136Z,73.18
2022-10-18T04:13:26.309Z,72.74
2022-10-18T04:15:53.278Z,72.82
2022-10-18T04:18:20.316Z,72.89
2022-10-18T04:20:47.497Z,72.83
2022-10-18T04:23:14.481Z,72.81
2022-10-18T04:25:41.460Z,73.06
2022-10-18T04:28:08.707Z,72.82
2022-10-18T04:30:35.985Z,72.80
2022-10-18T04:33:02.976Z,72.69
2022-10-18T04:35:30.088Z,72.73
2022-10-18T04:37:57.166Z,72.81
2022-10-18T04:40:24.174Z,72.38
2022-10-18T04:42:51.249Z,72.88
2022-10-18T04:45:18.236Z,72.46
2022-10-18T04:47:45.285Z,72.60
2022-10-18T04:50:12.274Z,72.35
2022-10-18T04:52:39.274Z,72.57
2022-10-18T04:55:06.906Z,72.53
2022-10-18T04:57:34.102Z,72.34
2022-10-18T05:00:01.572Z,72.11
2022-10-18T05:02:30.349Z,71.97
2022-10-18T05:04:57.798Z,72.03
2022-10-18T05:07:24.969Z,71.54
2022-10-18T05:09:51.923Z,71.68
2022-10-18T05:12:19.024Z,71.88
2022-10-18T05:14:46.103Z,71.86
2022-10-18T05:17:13.106Z,71.68
2022-10-18T05:19:40.275Z,71.88
2022-10-18T05:22:08.046Z,71.70
2022-10-18T05:24:35.168Z,71.50
2022-10-18T05:27:02.258Z,71.59
2022-10-18T05:29:29.318Z,71.70
2022-10-18T05:31:56.413Z,71.34
2022-10-18T05:34:24.823Z,71.32
2022-10-18T05:36:51.998Z,71.63
2022-10-18T05:39:19.000Z,71.48
2022-10-18T05:41:46.068Z,71.71
2022-10-18T05:44:13.093Z,71.38
2022-10-18T05:46:40.166Z,71.74
2022-10-18T05:49:07.093Z,71.72
2022-10-18T05:51:34.111Z,71.62
2022-10-18T05:54:01.197Z,71.58
2022-10-18T05:56:28.191Z,71.55
2022-10-18T05:58:55.224Z,71.66
2022-10-18T06:01:23.311Z,71.11
2022-10-18T06:03:51.716Z,71.21
2022-10-18T06:06:18.732Z,71.40
2022-10-18T06:08:49.705Z,71.28
2022-10-18T06:11:19.287Z,71.05
2022-10-18T06:13:48.346Z,70.85
2022-10-18T06:16:17.879Z,71.15
2022-10-18T06:18:49.348Z,70.98
2022-10-18T06:21:16.766Z,71.14
2022-10-18T06:23:44.013Z,71.41
2022-10-18T06:26:11.938Z,71.54
2022-10-18T06:28:39.426Z,71.67
2022-10-18T06:31:06.904Z,71.83
2022-10-18T06:33:35.448Z,71.73
2022-10-18T06:36:08.661Z,72.30
2022-10-18T06:38:36.166Z,71.99
2022-10-18T06:41:05.087Z,72.22
2022-10-18T06:43:32.463Z,72.06
2022-10-18T06:46:02.159Z,72.22
2022-10-18T06:48:29.376Z,72.18
2022-10-18T06:50:58.918Z,72.23
2022-10-18T06:53:28.740Z,72.14
2022-10-18T06:56:04.650Z,72.20
2022-10-18T06:58:32.084Z,71.75
2022-10-18T07:00:59.357Z,71.89
2022-10-18T07:03:27.375Z,71.93
2022-10-18T07:05:54.431Z,72.06
2022-10-18T07:08:21.474Z,72.05
2022-10-18T07:10:53.295Z,71.91
2022-10-18T07:13:32.018Z,72.30
2022-10-18T07:16:09.796Z,72.30
2022-10-18T07:18:41.751Z,72.20
2022-10-18T07:21:10.992Z,72.24
2022-10-18T07:23:40.677Z,72.50
2022-10-18T07:26:18.443Z,72.34
2022-10-18T07:28:47.964Z,72.94
2022-10-18T07:31:15.077Z,72.90
2022-10-18T07:33:43.196Z,72.60
2022-10-18T07:36:12.114Z,72.54
2022-10-18T07:38:39.487Z,72.66
2022-10-18T07:41:07.859Z,72.71
2022-10-18T07:43:35.836Z,72.70
2022-10-18T07:46:05.266Z,72.84
2022-10-18T07:48:32.537Z,72.80
2022-10-18T07:51:00.889Z,72.74
2022-10-18T07:53:29.222Z,72.60
2022-10-18T07:56:07.180Z,72.44
2022-10-18T07:58:36.670Z,72.09
2022-10-18T08:01:04.787Z,72.70
2022-10-18T08:03:32.307Z,72.64
2022-10-18T08:05:59.378Z,72.91
2022-10-18T08:08:27.197Z,72.91
2022-10-18T08:10:54.555Z,73.14
2022-10-18T08:13:22.539Z,73.13
2022-10-18T08:15:49.528Z,72.73
2022-10-18T08:18:16.468Z,73.21
2022-10-18T08:20:45.280Z,73.48
2022-10-18T08:23:12.730Z,73.70
2022-10-18T08:25:39.786Z,73.44
2022-10-18T08:28:07.257Z,73.43
2022-10-18T08:30:36.054Z,73.30
2022-10-18T08:33:03.906Z,73.21
2022-10-18T08:35:32.018Z,73.15
2022-10-18T08:37:59.553Z,73.83
2022-10-18T08:40:27.752Z,73.59
2022-10-18T08:43:29.992Z,74.08
2022-10-18T08:45:57.580Z,73.70
2022-10-18T08:48:46.226Z,73.60
2022-10-18T08:51:35.065Z,73.79
2022-10-18T08:54:12.592Z,73.95
2022-10-18T08:56:45.845Z,73.95
2022-10-18T08:59:13.509Z,73.88
2022-10-18T09:02:01.753Z,73.63
2022-10-18T09:04:41.117Z,73.59
2022-10-18T09:07:36.854Z,73.93
2022-10-18T09:10:24.047Z,73.98
2022-10-18T09:13:09.419Z,73.92
2022-10-18T09:15:45.089Z,73.75
2022-10-18T09:18:24.367Z,73.89
2022-10-18T09:20:57.262Z,73.81
2022-10-18T09:23:44.196Z,73.51
2022-10-18T09:26:17.689Z,74.27
2022-10-18T09:29:13.922Z,73.92
2022-10-18T09:32:04.863Z,73.84
2022-10-18T09:34:39.882Z,73.99
2022-10-18T09:37:13.604Z,73.71
2022-10-18T09:39:42.080Z,73.85
2022-10-18T09:42:16.580Z,73.47
2022-10-18T09:44:51.453Z,73.76
2022-10-18T09:47:52.299Z,73.46
2022-10-18T09:50:33.220Z,73.42
2022-10-18T09:53:12.550Z,73.67
2022-10-18T09:55:53.748Z,73.57
2022-10-18T09:58:23.041Z,73.38
2022-10-18T10:00:52.844Z,72.88
2022-10-18T10:03:19.895Z,73.22
2022-10-18T10:05:46.891Z,73.40
2022-10-18T10:08:14.129Z,73.67
2022-10-18T10:10:47.689Z,73.53
2022-10-18T10:13:16.341Z,73.29
2022-10-18T10:15:53.447Z,73.04
2022-10-18T10:18:22.922Z,73.08
2022-10-18T10:21:02.695Z,73.27
2022-10-18T10:23:33.201Z,73.37
2022-10-18T10:26:03.966Z,72.89
2022-10-18T10:28:37.395Z,72.94
2022-10-18T10:31:32.710Z,72.97
2022-10-18T10:34:19.237Z,73.33
2022-10-18T10:36:49.425Z,73.35
2022-10-18T10:39:21.468Z,73.27
2022-10-18T10:41:52.720Z,73.35
2022-10-18T10:44:23.510Z,73.38
2022-10-18T10:46:52.456Z,74.22
2022-10-18T10:52:28.567Z,74.09
2022-10-18T10:57:47.417Z,74.32
2022-10-18T11:00:44.070Z,74.83
2022-10-18T11:03:34.539Z,74.94
2022-10-18T11:06:02.175Z,75.73
2022-10-18T11:08:39.265Z,75.67
2022-10-18T11:11:27.057Z,76.09
2022-10-18T11:16:56.866Z,76.72
2022-10-18T11:19:34.665Z,76.46
2022-10-18T11:22:05.774Z,76.43
2022-10-18T11:24:35.832Z,77.05
2022-10-18T11:27:16.981Z,77.72
2022-10-18T11:30:12.598Z,77.85
2022-10-18T11:33:00.737Z,77.92
2022-10-18T11:35:50.604Z,78.00
2022-10-18T11:38:41.929Z,77.80
2022-10-18T11:41:40.002Z,78.25
2022-10-18T11:44:35.385Z,78.09
2022-10-18T11:47:23.425Z,77.96
2022-10-18T11:50:21.149Z,78.34
2022-10-18T11:53:04.737Z,78.10
2022-10-18T11:55:43.499Z,77.92
2022-10-18T11:58:32.090Z,77.75
2022-10-18T12:01:13.069Z,78.28
2022-10-18T12:03:58.802Z,78.45
2022-10-18T12:06:32.964Z,78.48
2022-10-18T12:09:05.183Z,78.47
2022-10-18T12:11:41.855Z,78.18
2022-10-18T12:14:29.362Z,78.23
2022-10-18T12:17:27.996Z,78.34
2022-10-18T12:19:49.946Z,78.19
2022-10-18T12:22:26.034Z,78.10
2022-10-18T12:24:53.009Z,78.04
2022-10-18T12:30:37.895Z,78.74
2022-10-18T12:33:27.955Z,78.72
2022-10-18T12:36:01.399Z,79.04
2022-10-18T12:38:32.964Z,79.35
2022-10-18T12:41:00.870Z,79.29
2022-10-18T12:43:34.223Z,79.03
2022-10-18T12:46:02.802Z,79.32
2022-10-18T12:48:29.782Z,79.07
2022-10-18T12:51:05.989Z,79.16
2022-10-18T12:53:34.186Z,78.71
2022-10-18T12:56:29.120Z,78.56
2022-10-18T12:59:39.103Z,78.79
2022-10-18T13:02:06.074Z,78.61
2022-10-18T13:04:34.986Z,78.30
2022-10-18T13:07:08.475Z,78.07
2022-10-18T13:09:46.687Z,77.81
2022-10-18T13:12:15.513Z,77.95
2022-10-18T13:15:25.981Z,77.33
2022-10-18T13:18:08.724Z,77.40
2022-10-18T13:20:54.414Z,76.81
2022-10-18T13:23:45.355Z,76.51
2022-10-18T13:26:38.138Z,75.92
2022-10-18T13:29:30.421Z,75.81
2022-10-18T13:32:28.163Z,75.50
2022-10-18T13:34:55.302Z,76.12
2022-10-18T13:37:25.425Z,75.78
2022-10-18T13:40:25.407Z,74.92
2022-10-18T13:42:52.583Z,75.45
2022-10-18T13:45:31.967Z,75.17
2022-10-18T13:48:30.095Z,74.07
2022-10-18T13:51:50.491Z,74.18
2022-10-18T13:54:29.429Z,73.67
2022-10-18T13:57:18.105Z,73.82
2022-10-18T14:00:04.112Z,74.14
2022-10-18T14:03:00.214Z,73.65
2022-10-18T14:06:01.792Z,73.57
2022-10-18T14:09:09.395Z,73.65
2022-10-18T14:12:19.390Z,73.45
2022-10-18T14:14:54.937Z,73.54
2022-10-18T14:17:36.401Z,73.53
2022-10-18T14:20:14.575Z,73.63
2022-10-18T14:22:48.690Z,73.14
2022-10-18T14:25:27.118Z,73.25
2022-10-18T14:28:36.343Z,72.50
2022-10-18T14:31:16.248Z,72.75
2022-10-18T14:33:47.182Z,72.60
2022-10-18T14:36:21.956Z,73.07
2022-10-18T14:38:56.228Z,73.03
2022-10-18T14:41:32.857Z,72.88
2022-10-18T14:44:15.262Z,72.62
2022-10-18T14:47:06.182Z,72.73
2022-10-18T14:49:33.298Z,72.93
2022-10-18T14:52:01.203Z,72.59
2022-10-18T14:54:37.826Z,72.56
2022-10-18T14:57:06.444Z,72.57
2022-10-18T14:59:42.061Z,72.86
2022-10-18T15:02:16.778Z,72.74
2022-10-18T15:04:45.925Z,72.42
2022-10-18T15:07:16.574Z,72.49
2022-10-18T15:09:43.871Z,72.09
2022-10-18T15:12:15.044Z,72.34
2022-10-18T15:14:43.470Z,72.42
2022-10-18T15:17:25.894Z,71.61
2022-10-18T15:20:18.844Z,71.60
2022-10-18T15:22:47.000Z,71.48
2022-10-18T15:25:22.622Z,71.83
2022-10-18T15:27:52.569Z,71.30
2022-10-18T15:30:28.260Z,70.55
2022-10-18T15:32:58.955Z,70.13
2022-10-18T15:35:33.047Z,70.28
2022-10-18T15:38:13.728Z,70.58
2022-10-18T15:40:41.973Z,70.42
2022-10-18T15:43:25.485Z,69.78
2022-10-18T15:46:05.347Z,70.26
2022-10-18T15:48:40.311Z,69.83
2022-10-18T15:51:48.284Z,69.46
2022-10-18T15:54:19.599Z,70.14
2022-10-18T15:56:46.676Z,69.85
2022-10-18T15:59:29.302Z,69.67
2022-10-18T16:01:56.497Z,69.54
2022-10-18T16:04:25.392Z,69.21
2022-10-18T16:06:53.208Z,69.89
2022-10-18T16:09:21.681Z,69.74
2022-10-18T16:11:56.384Z,69.43
2022-10-18T16:14:25.560Z,69.58
2022-10-18T16:17:00.725Z,69.45
2022-10-18T16:19:28.152Z,69.24
2022-10-18T16:21:55.733Z,69.62
2022-10-18T16:24:23.521Z,69.37
2022-10-18T16:26:51.352Z,69.30
2022-10-18T16:29:24.521Z,69.50
2022-10-18T16:31:53.756Z,69.06
2022-10-18T16:34:22.647Z,69.32
2022-10-18T16:36:49.945Z,68.74
2022-10-18T16:39:18.976Z,69.25
2022-10-18T16:41:47.169Z,69.08
2022-10-18T16:44:16.067Z,68.83
2022-10-18T16:46:43.723Z,68.88
2022-10-18T16:49:25.203Z,68.80
2022-10-18T16:51:53.478Z,68.95
2022-10-18T16:54:21.237Z,68.10
2022-10-18T16:56:50.261Z,68.52
2022-10-18T16:59:27.572Z,68.12
2022-10-18T17:01:54.938Z,68.42
2022-10-18T17:04:22.240Z,68.25
2022-10-18T17:06:49.731Z,67.98
2022-10-18T17:09:17.007Z,68.02
2022-10-18T17:11:44.319Z,67.71
2022-10-18T17:14:11.532Z,67.87
2022-10-18T17:16:40.037Z,67.72
2022-10-18T17:19:11.208Z,67.97
2022-10-18T17:21:38.544Z,67.84
2022-10-18T17:24:06.442Z,68.49
2022-10-18T17:26:34.321Z,68.41
2022-10-18T17:29:05.061Z,68.38
2022-10-18T17:31:32.457Z,68.15
2022-10-18T17:34:01.885Z,68.17
2022-10-18T17:36:33.613Z,68.47
2022-10-18T17:39:01.831Z,68.40
2022-10-18T17:41:30.588Z,68.34
2022-10-18T17:43:57.971Z,68.35
2022-10-18T17:46:25.216Z,68.57
2022-10-18T17:48:53.250Z,68.54
2022-10-18T17:51:20.341Z,68.58
2022-10-18T17:53:47.488Z,68.04
2022-10-18T17:56:15.631Z,67.88
2022-10-18T17:58:47.182Z,68.23
2022-10-18T18:01:17.532Z,67.32
2022-10-18T18:03:45.346Z,67.74
2022-10-18T18:06:16.576Z,67.91
2022-10-18T18:08:44.209Z,67.59
2022-10-18T18:11:11.784Z,67.36
2022-10-18T18:13:40.267Z,67.63
2022-10-18T18:16:12.380Z,67.35
2022-10-18T18:18:39.487Z,67.24
2022-10-18T18:21:06.587Z,67.50
2022-10-18T18:23:33.744Z,67.10
2022-10-18T18:26:00.971Z,67.21
2022-10-18T18:28:28.183Z,67.83
2022-10-18T18:30:55.334Z,67.38
2022-10-18T18:33:22.476Z,67.28
2022-10-18T18:35:58.630Z,67.97
2022-10-18T18:38:26.525Z,67.79
2022-10-18T18:41:18.204Z,68.02
2022-10-18T18:43:52.150Z,68.31
2022-10-18T18:46:19.857Z,67.99
2022-10-18T18:48:47.102Z,67.96
2022-10-18T18:51:20.320Z,67.89
2022-10-18T18:53:48.872Z,68.41
2022-10-18T18:58:47.209Z,67.78
2022-10-18T19:01:22.628Z,67.90
2022-10-18T19:03:51.668Z,68.06
2022-10-18T19:06:40.358Z,68.34
2022-10-18T19:09:22.452Z,68.13
2022-10-18T19:11:53.060Z,68.47
2022-10-18T19:17:01.196Z,68.67
2022-10-18T19:19:30.518Z,69.05
2022-10-18T19:22:00.364Z,68.90
2022-10-18T19:24:30.310Z,68.86
2022-10-18T19:27:01.574Z,68.96
2022-10-18T19:29:32.849Z,69.13
2022-10-18T19:32:02.765Z,69.31
2022-10-18T19:34:31.570Z,69.69
2022-10-18T19:36:58.762Z,69.52
2022-10-18T19:39:31.857Z,69.38
2022-10-18T19:42:00.539Z,69.51
2022-10-18T19:44:30.919Z,69.20
2022-10-18T19:46:58.660Z,69.38
2022-10-18T19:49:26.286Z,68.97
2022-10-18T19:51:53.408Z,69.51
2022-10-18T19:54:21.154Z,69.64
2022-10-18T19:56:48.373Z,69.43
2022-10-18T19:59:16.751Z,69.57
2022-10-18T20:01:44.806Z,69.50
2022-10-18T20:04:12.945Z,69.47
2022-10-18T20:06:40.972Z,69.27
2022-10-18T20:09:12.364Z,69.26
2022-10-18T20:11:42.232Z,69.19
2022-10-18T20:14:12.372Z,68.71
2022-10-18T20:16:39.488Z,68.71
2022-10-18T20:19:07.770Z,68.30
2022-10-18T20:21:36.131Z,68.23
2022-10-18T20:24:05.073Z,68.08
2022-10-18T20:26:32.729Z,68.19
2022-10-18T20:29:00.376Z,68.19
2022-10-18T20:31:30.507Z,68.49
2022-10-18T20:34:00.201Z,68.29
2022-10-18T20:36:29.047Z,68.41
2022-10-18T20:38:56.378Z,68.29
2022-10-18T20:41:31.955Z,68.39
2022-10-18T20:44:05.385Z,68.25
2022-10-18T20:46:35.394Z,68.22
2022-10-18T20:49:03.489Z,68.21
2022-10-18T20:51:31.068Z,68.36
2022-10-18T20:53:59.341Z,68.65
2022-10-18T20:56:27.375Z,68.71
2022-10-18T20:58:56.936Z,68.90
2022-10-18T21:01:28.876Z,69.25
2022-10-18T21:03:57.740Z,69.07
2022-10-18T21:06:26.339Z,68.90
2022-10-18T21:08:59.024Z,69.17
2022-10-18T21:11:27.833Z,69.05
2022-10-18T21:13:59.164Z,68.88
2022-10-18T21:16:27.286Z,68.92
2022-10-18T21:18:55.141Z,68.62
2022-10-18T21:21:25.669Z,68.98
2022-10-18T21:23:53.722Z,68.75
2022-10-18T21:26:25.795Z,68.72
2022-10-18T21:28:54.777Z,68.56
2022-10-18T21:31:24.176Z,68.64
2022-10-18T21:33:59.737Z,68.25
2022-10-18T21:36:30.326Z,68.40
2022-10-18T21:38:57.451Z,68.37
2022-10-18T21:41:25.171Z,67.97
2022-10-18T21:43:54.432Z,68.01
2022-10-18T21:46:23.315Z,68.28
2022-10-18T21:48:52.299Z,68.14
2022-10-18T21:51:21.081Z,68.28
2022-10-18T21:53:50.679Z,68.30
2022-10-18T21:56:26.668Z,68.22
2022-10-18T21:58:54.562Z,68.00
2022-10-18T22:01:28.054Z,68.13
2022-10-18T22:03:56.881Z,68.31
2022-10-18T22:06:25.395Z,68.04
2022-10-18T22:08:57.513Z,68.17
2022-10-18T22:11:31.585Z,68.04
2022-10-18T22:13:59.390Z,68.16
2022-10-18T22:16:26.977Z,68.23
2022-10-18T22:18:58.111Z,68.37
2022-10-18T22:21:25.321Z,68.25
2022-10-18T22:23:54.862Z,68.07
2022-10-18T22:26:30.833Z,68.25
2022-10-18T22:29:04.420Z,68.00
2022-10-18T22:31:34.455Z,68.02
2022-10-18T22:34:04.481Z,68.18
2022-10-18T22:36:32.815Z,68.17
2022-10-18T22:39:00.428Z,67.96
2022-10-18T22:41:27.495Z,68.10
2022-10-18T22:43:56.392Z,68.10
2022-10-18T22:46:26.343Z,67.95
2022-10-18T22:48:53.422Z,67.67
2022-10-18T22:51:20.846Z,67.87
2022-10-18T22:53:47.963Z,67.55
2022-10-18T22:56:21.634Z,67.82
2022-10-18T22:58:49.590Z,67.70
2022-10-18T23:01:20.487Z,67.80
2022-10-18T23:03:52.065Z,67.72
2022-10-18T23:06:28.445Z,67.70
2022-10-18T23:08:57.449Z,67.65
2022-10-18T23:11:26.027Z,67.81
2022-10-18T23:13:53.670Z,67.42
2022-10-18T23:16:21.415Z,67.66
2022-10-18T23:18:53.302Z,67.36
2022-10-18T23:21:21.177Z,67.48
2022-10-18T23:23:48.283Z,67.66
2022-10-18T23:26:17.979Z,67.49
2022-10-18T23:28:48.153Z,67.68
2022-10-18T23:31:18.275Z,67.74
2022-10-18T23:33:47.538Z,67.86
2022-10-18T23:36:15.044Z,67.86
2022-10-18T23:38:42.940Z,67.87
2022-10-18T23:41:11.959Z,68.20
2022-10-18T23:43:39.740Z,68.14
2022-10-18T23:46:07.404Z,68.21
2022-10-18T23:48:34.537Z,68.15
2022-10-18T23:51:02.663Z,68.18
2022-10-18T23:53:29.915Z,68.35
2022-10-18T23:55:59.306Z,68.67
2022-10-18T23:58:27.470Z,68.63
